| time (UTC) | temp C | wind direction | speed KPH | gust KPH | rain 1hr cm | rain 24hr cm | rain mn cm | humidity % | barometer mb |
| 20260906200036 | 35 | 135 | 11.3 | 22.5 | 0.00 | 0.05 | 0.00 | 38 | 1008.4 |
| 20260906194535 | 35 | 119 | 12.9 | 27.4 | 0.00 | 0.05 | 0.00 | 39 | 1008.6 |
| 20260906193031 | 34 | 103 | 14.5 | 22.5 | 0.00 | 0.05 | 0.00 | 40 | 1008.6 |
| 20260906191532 | 33 | 124 | 20.9 | 29.0 | 0.00 | 0.05 | 0.00 | 41 | 1008.8 |
| 20260906190031 | 33 | 110 | 16.1 | 24.1 | 0.00 | 0.05 | 0.00 | 41 | 1008.9 |
| 20260906184530 | 34 | 92 | 11.3 | 27.4 | 0.00 | 0.05 | 0.00 | 40 | 1009.1 |
| 20260906183028 | 33 | 108 | 8.0 | 20.9 | 0.00 | 0.05 | 0.00 | 45 | 1009.3 |
| 20260906181524 | 32 | 75 | 8.0 | 16.1 | 0.00 | 0.05 | 0.00 | 47 | 1009.7 |
| 20260906180022 | 32 | 97 | 1.6 | 11.3 | 0.00 | 0.05 | 0.00 | 50 | 1010.1 |
| 20260906174520 | 32 | 17 | 0.0 | 4.8 | 0.00 | 0.05 | 0.00 | 52 | 1010.5 |
| 20260906173016 | 31 | 93 | 1.6 | 9.7 | 0.00 | 0.05 | 0.00 | 54 | 1010.8 |
| 20260906171512 | 30 | 102 | 3.2 | 11.3 | 0.00 | 0.05 | 0.00 | 57 | 1010.9 |
| 20260906170011 | 29 | 78 | 1.6 | 8.0 | 0.00 | 0.05 | 0.00 | 60 | 1011.1 |
| 20260906164505 | 28 | 70 | 1.6 | 4.8 | 0.00 | 0.05 | 0.00 | 62 | 1011.1 |
| 20260906163005 | 27 | 92 | 0.0 | 6.4 | 0.00 | 0.05 | 0.00 | 63 | 1011.2 |
| 20260906161604 | 27 | 77 | 1.6 | 9.7 | 0.00 | 0.05 | 0.00 | 63 | 1011.3 |
| 20260906160059 | 27 | 81 | 0.0 | 6.4 | 0.00 | 0.05 | 0.00 | 63 | 1011.2 |
| 20260906154604 | 27 | 76 | 3.2 | 8.0 | 0.00 | 0.05 | 0.00 | 63 | 1011.1 |
| 20260906153057 | 27 | 97 | 1.6 | 8.0 | 0.00 | 0.05 | 0.00 | 61 | 1010.9 |
| 20260906151555 | 27 | 90 | 4.8 | 11.3 | 0.00 | 0.05 | 0.00 | 61 | 1010.6 |
| 20260906144550 | 26 | 73 | 1.6 | 8.0 | 0.00 | 0.05 | 0.00 | 66 | 1010.6 |
| 20260906143047 | 26 | 53 | 3.2 | 8.0 | 0.00 | 0.05 | 0.00 | 67 | 1010.7 |
| 20260906141555 | 25 | 74 | 3.2 | 8.0 | 0.00 | 0.05 | 0.00 | 68 | 1010.6 |
| 20260906140046 | 24 | 79 | 1.6 | 6.4 | 0.00 | 0.05 | 0.00 | 70 | 1010.5 |
| 20260906134542 | 24 | 90 | 0.0 | 6.4 | 0.00 | 0.05 | 0.00 | 71 | 1010.3 |
| 20260906133040 | 23 | 82 | 0.0 | 4.8 | 0.00 | 0.05 | 0.00 | 71 | 1010.1 |
| 20260906131539 | 23 | 79 | 1.6 | 6.4 | 0.00 | 0.05 | 0.00 | 73 | 1010.0 |
| 20260906130047 | 23 | 81 | 0.0 | 4.8 | 0.00 | 0.05 | 0.00 | 74 | 1009.7 |
| 20260906124537 | 22 | 82 | 3.2 | 6.4 | 0.00 | 0.05 | 0.00 | 74 | 1009.4 |
| 20260906123041 | 22 | 83 | 0.0 | 1.6 | 0.00 | 0.05 | 0.00 | 74 | 1009.3 |
| 20260906121533 | 23 | 87 | 0.0 | 4.8 | 0.00 | 0.05 | 0.00 | 72 | 1009.1 |
| 20260906120030 | 23 | 74 | 0.0 | 4.8 | 0.00 | 0.05 | 0.00 | 71 | 1009.2 |
| 20260906114531 | 23 | 81 | 0.0 | 4.8 | 0.00 | 0.05 | 0.00 | 72 | 1008.9 |
| 20260906113026 | 23 | 84 | 0.0 | 0.0 | 0.00 | 0.05 | 0.00 | 74 | 1008.9 |
| 20260906111525 | 23 | 74 | 1.6 | 3.2 | 0.00 | 0.05 | 0.00 | 74 | 1009.0 |
| 20260906110025 | 23 | 93 | 0.0 | 0.0 | 0.00 | 0.05 | 0.00 | 75 | 1009.0 |
| 20260906104538 | 23 | 93 | 0.0 | 0.0 | 0.00 | 0.05 | 0.00 | 75 | 1008.8 |
| 20260906103040 | 23 | 93 | 0.0 | 0.0 | 0.00 | 0.05 | 0.00 | 75 | 1008.8 |
| 20260906101523 | 23 | 93 | 0.0 | 0.0 | 0.00 | 0.05 | 0.00 | 75 | 1008.7 |
| 20260906100027 | 24 | 93 | 0.0 | 0.0 | 0.00 | 0.05 | 0.00 | 74 | 1008.6 |
| 20260906094527 | 24 | 93 | 0.0 | 0.0 | 0.00 | 0.05 | 0.00 | 73 | 1008.6 |
| 20260906093032 | 25 | 93 | 0.0 | 0.0 | 0.00 | 0.05 | 0.00 | 71 | 1008.5 |
| 20260906091526 | 25 | 125 | 1.6 | 4.8 | 0.00 | 0.05 | 0.00 | 70 | 1008.5 |
| 20260906090021 | 25 | 214 | 1.6 | 8.0 | 0.00 | 0.05 | 0.00 | 65 | 1008.6 |
| 20260906084520 | 25 | 247 | 1.6 | 4.8 | 0.00 | 0.05 | 0.00 | 65 | 1008.6 |
| 20260906083018 | 26 | 214 | 4.8 | 9.7 | 0.00 | 0.05 | 0.00 | 63 | 1008.4 |
| 20260906081519 | 26 | 212 | 3.2 | 11.3 | 0.00 | 0.05 | 0.00 | 62 | 1008.4 |
| 20260906080015 | 25 | 197 | 8.0 | 14.5 | 0.00 | 0.05 | 0.00 | 63 | 1008.4 |
| 20260906074514 | 24 | 202 | 4.8 | 8.0 | 0.00 | 0.05 | 0.00 | 69 | 1008.5 |
| 20260906073011 | 23 | 242 | 1.6 | 3.2 | 0.00 | 0.05 | 0.00 | 76 | 1008.7 |
| 20260906071510 | 25 | 150 | 0.0 | 3.2 | 0.00 | 0.05 | 0.00 | 69 | 1008.5 |
| 20260906070018 | 24 | 236 | 0.0 | 0.0 | 0.00 | 0.05 | 0.00 | 71 | 1008.6 |
| 20260906064508 | 24 | 236 | 0.0 | 0.0 | 0.00 | 0.05 | 0.00 | 72 | 1008.8 |
| 20260906063006 | 24 | 236 | 0.0 | 0.0 | 0.00 | 0.05 | 0.00 | 72 | 1008.8 |
| 20260906061509 | 24 | 236 | 0.0 | 0.0 | 0.00 | 0.05 | 0.00 | 72 | 1008.7 |
| 20260906060003 | 25 | 248 | 0.0 | 0.0 | 0.00 | 0.05 | 0.00 | 71 | 1008.5 |
| 20260906054502 | 24 | 75 | 0.0 | 0.0 | 0.00 | 0.05 | 0.00 | 72 | 1008.3 |
| 20260906053059 | 24 | 76 | 0.0 | 4.8 | 0.00 | 0.05 | 0.00 | 73 | 1008.2 |
| 20260906051556 | 25 | 75 | 3.2 | 8.0 | 0.00 | 0.05 | 0.00 | 72 | 1008.0 |
| 20260906044552 | 25 | 91 | 0.0 | 6.4 | 0.00 | 0.05 | 0.05 | 68 | 1007.9 |
| 20260906043051 | 26 | 78 | 1.6 | 8.0 | 0.00 | 0.05 | 0.05 | 66 | 1008.0 |
| 20260906041550 | 26 | 77 | 3.2 | 8.0 | 0.00 | 0.05 | 0.05 | 67 | 1008.0 |
| 20260906040056 | 26 | 76 | 4.8 | 8.0 | 0.00 | 0.05 | 0.05 | 66 | 1007.8 |
| 20260906034553 | 28 | 91 | 11.3 | 16.1 | 0.00 | 0.05 | 0.05 | 60 | 1007.8 |
| 20260906033050 | 28 | 96 | 12.9 | 16.1 | 0.00 | 0.05 | 0.05 | 60 | 1007.6 |
| 20260906031607 | 28 | 102 | 8.0 | 14.5 | 0.00 | 0.05 | 0.05 | 61 | 1007.2 |
| 20260906030046 | 28 | 94 | 9.7 | 14.5 | 0.00 | 0.05 | 0.05 | 61 | 1007.2 |
| 20260906024557 | 28 | 92 | 9.7 | 16.1 | 0.00 | 0.05 | 0.05 | 61 | 1007.2 |
| 20260906023050 | 28 | 114 | 12.9 | 17.7 | 0.00 | 0.05 | 0.05 | 60 | 1007.0 |
| 20260906021545 | 27 | 108 | 12.9 | 24.1 | 0.00 | 0.05 | 0.05 | 62 | 1006.9 |
| 20260906020044 | 27 | 108 | 17.7 | 30.6 | 0.00 | 0.05 | 0.05 | 65 | 1007.0 |
| 20260906014544 | 27 | 91 | 20.9 | 25.7 | 0.03 | 0.05 | 0.05 | 65 | 1007.1 |
| 20260906013043 | 26 | 88 | 4.8 | 9.7 | 0.03 | 0.05 | 0.05 | 71 | 1006.6 |
| 20260906011542 | 25 | 70 | 4.8 | 12.9 | 0.03 | 0.05 | 0.05 | 84 | 1006.2 |
| 20260906010048 | 23 | 78 | 9.7 | 19.3 | 0.05 | 0.05 | 0.05 | 91 | 1006.6 |
| 20260906004543 | 29 | 99 | 8.0 | 14.5 | 0.03 | 0.03 | 0.03 | 58 | 1006.6 |
| 20260906003038 | 31 | 79 | 19.3 | 29.0 | 0.03 | 0.03 | 0.03 | 50 | 1006.4 |
| 20260906001538 | 28 | 104 | 19.3 | 27.4 | 0.03 | 0.03 | 0.03 | 75 | 1006.1 |
| 20260906000039 | 33 | 96 | 4.8 | 19.3 | 0.00 | 0.00 | 0.00 | 45 | 1006.0 |
| 20260905234540 | 35 | 100 | 12.9 | 19.3 | 0.00 | 0.00 | 0.00 | 35 | 1005.6 |
| 20260905233035 | 35 | 79 | 11.3 | 19.3 | 0.00 | 0.00 | 0.00 | 36 | 1005.5 |
| 20260905231534 | 36 | 95 | 14.5 | 25.7 | 0.00 | 0.00 | 0.00 | 35 | 1005.4 |
| 20260905230035 | 36 | 117 | 14.5 | 22.5 | 0.00 | 0.00 | 0.00 | 35 | 1005.1 |
| 20260905224533 | 36 | 89 | 14.5 | 27.4 | 0.00 | 0.00 | 0.00 | 35 | 1005.0 |
| 20260905223032 | 36 | 115 | 14.5 | 22.5 | 0.00 | 0.00 | 0.00 | 35 | 1004.8 |
| 20260905221532 | 37 | 105 | 8.0 | 25.7 | 0.00 | 0.00 | 0.00 | 35 | 1004.8 |
| 20260905220033 | 36 | 117 | 9.7 | 27.4 | 0.00 | 0.00 | 0.00 | 35 | 1005.0 |
| 20260905214529 | 37 | 142 | 14.5 | 24.1 | 0.00 | 0.00 | 0.00 | 34 | 1005.0 |
| 20260905213026 | 37 | 95 | 14.5 | 38.6 | 0.00 | 0.00 | 0.00 | 34 | 1005.1 |
| 20260905211547 | 36 | 109 | 12.9 | 30.6 | 0.00 | 0.00 | 0.00 | 35 | 1005.6 |
| 20260905210021 | 36 | 114 | 9.7 | 22.5 | 0.00 | 0.00 | 0.00 | 36 | 1005.7 |
| 20260905204518 | 36 | 133 | 11.3 | 19.3 | 0.00 | 0.00 | 0.00 | 35 | 1006.1 |
| 20260905203017 | 36 | 148 | 12.9 | 24.1 | 0.00 | 0.00 | 0.00 | 36 | 1006.3 |
| 20260905201515 | 36 | 90 | 14.5 | 24.1 | 0.00 | 0.00 | 0.00 | 37 | 1006.4 |